PGT75BA LTFJ-LTBS
Flight info
| Callsign | PGT75BA |
|---|---|
| Flight time | 0h 46m |
| Altitude | 30000 |
| Route | ROXUK1J/06L ROXUK UT409 NUMTI UT241 DEN UW87 LAVTA W87 ATSAL |
| Aircraft | A321/M-SDE3FGHIRWY/LB1 |
Departure
| Time | 2026-04-27 17:25 |
|---|---|
| Airport | Istanbul Sabiha Gökçen International Airport (LTFJ) |
Arrival
| Time | 2026-04-27 18:12 |
|---|---|
| Airport | Dalaman International Airport (LTBS) |
| Time | Latitude | Longitude | Altitude | Speed | Heading |
|---|---|---|---|---|---|
| 2026-04-27 17:05 | 40.90403 | 29.31540 | 311 ft | 0 kts | 154° |
| 2026-04-27 17:15 | 40.90424 | 29.31526 | 310 ft | 4 kts | 153° |
| 2026-04-27 17:15 | 40.90449 | 29.31511 | 309 ft | 4 kts | 157° |
| 2026-04-27 17:16 | 40.90474 | 29.31498 | 309 ft | 4 kts | 161° |
| 2026-04-27 17:16 | 40.90495 | 29.31489 | 310 ft | 1 kts | 162° |
| 2026-04-27 17:16 | 40.90497 | 29.31488 | 310 ft | 0 kts | 162° |
| 2026-04-27 17:18 | 40.90479 | 29.31483 | 310 ft | 5 kts | 201° |
| 2026-04-27 17:19 | 40.90454 | 29.31452 | 311 ft | 6 kts | 223° |
| 2026-04-27 17:19 | 40.90408 | 29.31440 | 311 ft | 7 kts | 170° |
| 2026-04-27 17:19 | 40.90364 | 29.31466 | 311 ft | 9 kts | 153° |
| 2026-04-27 17:19 | 40.90303 | 29.31490 | 311 ft | 9 kts | 185° |
| 2026-04-27 17:20 | 40.90256 | 29.31438 | 311 ft | 11 kts | 240° |
| 2026-04-27 17:20 | 40.90211 | 29.31316 | 311 ft | 19 kts | 244° |
| 2026-04-27 17:20 | 40.90143 | 29.31131 | 311 ft | 25 kts | 244° |
| 2026-04-27 17:20 | 40.90068 | 29.30929 | 311 ft | 23 kts | 244° |
| 2026-04-27 17:21 | 40.90000 | 29.30742 | 311 ft | 22 kts | 244° |
| 2026-04-27 17:21 | 40.89930 | 29.30555 | 311 ft | 23 kts | 244° |
| 2026-04-27 17:21 | 40.89858 | 29.30359 | 310 ft | 24 kts | 244° |
| 2026-04-27 17:21 | 40.89786 | 29.30163 | 309 ft | 23 kts | 244° |
| 2026-04-27 17:22 | 40.89717 | 29.29975 | 308 ft | 23 kts | 244° |
| 2026-04-27 17:22 | 40.89648 | 29.29788 | 306 ft | 22 kts | 244° |
| 2026-04-27 17:22 | 40.89582 | 29.29608 | 305 ft | 22 kts | 243° |
| 2026-04-27 17:22 | 40.89522 | 29.29448 | 302 ft | 17 kts | 244° |
| 2026-04-27 17:23 | 40.89482 | 29.29336 | 305 ft | 6 kts | 244° |
| 2026-04-27 17:23 | 40.89464 | 29.29291 | 303 ft | 5 kts | 239° |
| 2026-04-27 17:23 | 40.89431 | 29.29255 | 304 ft | 7 kts | 203° |
| 2026-04-27 17:23 | 40.89384 | 29.29260 | 303 ft | 8 kts | 158° |
| 2026-04-27 17:24 | 40.89316 | 29.29306 | 301 ft | 12 kts | 147° |
| 2026-04-27 17:24 | 40.89288 | 29.29381 | 302 ft | 8 kts | 84° |
| 2026-04-27 17:24 | 40.89306 | 29.29436 | 303 ft | 8 kts | 63° |
| 2026-04-27 17:24 | 40.89399 | 29.29684 | 307 ft | 63 kts | 64° |
| 2026-04-27 17:25 | 40.89680 | 29.30449 | 311 ft | 119 kts | 64° |
| 2026-04-27 17:25 | 40.90100 | 29.31595 | 477 ft | 146 kts | 64° |
| 2026-04-27 17:25 | 40.90529 | 29.32771 | 1203 ft | 142 kts | 64° |
| 2026-04-27 17:25 | 40.90959 | 29.33936 | 1870 ft | 141 kts | 66° |
| 2026-04-27 17:26 | 40.91401 | 29.35135 | 2283 ft | 153 kts | 66° |
| 2026-04-27 17:26 | 40.91899 | 29.36493 | 2469 ft | 176 kts | 66° |
| 2026-04-27 17:26 | 40.92458 | 29.38016 | 2621 ft | 196 kts | 65° |
| 2026-04-27 17:26 | 40.93091 | 29.39741 | 2893 ft | 213 kts | 65° |
| 2026-04-27 17:27 | 40.93534 | 29.41558 | 3573 ft | 213 kts | 89° |
| 2026-04-27 17:27 | 40.93044 | 29.43456 | 3916 ft | 237 kts | 127° |
| 2026-04-27 17:27 | 40.91670 | 29.44835 | 4337 ft | 259 kts | 149° |
| 2026-04-27 17:27 | 40.89997 | 29.45812 | 5090 ft | 265 kts | 156° |
| 2026-04-27 17:28 | 40.88259 | 29.46676 | 5813 ft | 270 kts | 159° |
| 2026-04-27 17:28 | 40.86490 | 29.47572 | 6529 ft | 274 kts | 159° |
| 2026-04-27 17:28 | 40.82920 | 29.49573 | 7891 ft | 282 kts | 156° |
| 2026-04-27 17:29 | 40.81124 | 29.50663 | 8575 ft | 286 kts | 155° |
| 2026-04-27 17:29 | 40.79319 | 29.51792 | 9278 ft | 289 kts | 154° |
| 2026-04-27 17:29 | 40.77543 | 29.53056 | 9958 ft | 292 kts | 145° |
| 2026-04-27 17:29 | 40.76026 | 29.54851 | 10574 ft | 296 kts | 130° |
| 2026-04-27 17:30 | 40.74706 | 29.57020 | 10841 ft | 314 kts | 134° |
| 2026-04-27 17:30 | 40.70574 | 29.59308 | 11135 ft | 348 kts | 184° |
| 2026-04-27 17:30 | 40.68208 | 29.58547 | 11580 ft | 354 kts | 200° |
| 2026-04-27 17:31 | 40.65884 | 29.57437 | 12183 ft | 358 kts | 201° |
| 2026-04-27 17:31 | 40.63536 | 29.56297 | 12813 ft | 361 kts | 201° |
| 2026-04-27 17:31 | 40.61171 | 29.55142 | 13436 ft | 364 kts | 201° |
| 2026-04-27 17:31 | 40.58786 | 29.53983 | 14061 ft | 367 kts | 201° |
| 2026-04-27 17:32 | 40.56378 | 29.52821 | 14614 ft | 370 kts | 201° |
| 2026-04-27 17:32 | 40.51501 | 29.50475 | 15744 ft | 375 kts | 201° |
| 2026-04-27 17:32 | 40.49039 | 29.49295 | 16294 ft | 378 kts | 201° |
| 2026-04-27 17:33 | 40.46562 | 29.48111 | 16838 ft | 381 kts | 201° |
| 2026-04-27 17:33 | 40.44064 | 29.46914 | 17360 ft | 384 kts | 201° |
| 2026-04-27 17:33 | 40.41549 | 29.45707 | 17874 ft | 387 kts | 201° |
| 2026-04-27 17:33 | 40.39007 | 29.44488 | 18394 ft | 389 kts | 201° |
| 2026-04-27 17:34 | 40.36454 | 29.43265 | 18844 ft | 392 kts | 201° |
| 2026-04-27 17:34 | 40.33882 | 29.42034 | 19300 ft | 395 kts | 201° |
| 2026-04-27 17:34 | 40.31294 | 29.40796 | 19740 ft | 397 kts | 201° |
| 2026-04-27 17:34 | 40.28686 | 29.39556 | 20180 ft | 399 kts | 201° |
| 2026-04-27 17:35 | 40.26070 | 29.38313 | 20634 ft | 402 kts | 201° |
| 2026-04-27 17:35 | 40.23436 | 29.37062 | 21084 ft | 404 kts | 201° |
| 2026-04-27 17:35 | 40.20790 | 29.35807 | 21532 ft | 406 kts | 201° |
| 2026-04-27 17:35 | 40.18158 | 29.34568 | 21969 ft | 408 kts | 199° |
| 2026-04-27 17:36 | 40.15323 | 29.33836 | 22400 ft | 413 kts | 188° |
| 2026-04-27 17:36 | 40.12457 | 29.33436 | 22835 ft | 415 kts | 188° |
| 2026-04-27 17:36 | 40.09574 | 29.33049 | 23243 ft | 418 kts | 187° |
| 2026-04-27 17:36 | 40.06716 | 29.32675 | 24056 ft | 407 kts | 187° |
| 2026-04-27 17:37 | 40.03955 | 29.32314 | 24621 ft | 403 kts | 188° |
| 2026-04-27 17:37 | 40.01163 | 29.31944 | 25035 ft | 403 kts | 188° |
| 2026-04-27 17:37 | 39.98367 | 29.31571 | 25387 ft | 405 kts | 188° |
| 2026-04-27 17:37 | 39.95556 | 29.31196 | 25747 ft | 407 kts | 188° |
| 2026-04-27 17:38 | 39.92735 | 29.30819 | 26090 ft | 409 kts | 188° |
| 2026-04-27 17:38 | 39.89908 | 29.30443 | 26555 ft | 407 kts | 188° |
| 2026-04-27 17:38 | 39.87094 | 29.30069 | 26943 ft | 408 kts | 188° |
| 2026-04-27 17:38 | 39.84267 | 29.29693 | 27284 ft | 409 kts | 188° |
| 2026-04-27 17:39 | 39.81420 | 29.29315 | 27612 ft | 412 kts | 188° |
| 2026-04-27 17:39 | 39.78563 | 29.28935 | 27940 ft | 414 kts | 188° |
| 2026-04-27 17:39 | 39.75707 | 29.28555 | 28396 ft | 412 kts | 188° |
| 2026-04-27 17:39 | 39.72853 | 29.28179 | 28775 ft | 413 kts | 188° |
| 2026-04-27 17:40 | 39.69984 | 29.27803 | 29095 ft | 415 kts | 188° |
| 2026-04-27 17:40 | 39.67092 | 29.27421 | 29250 ft | 421 kts | 188° |
| 2026-04-27 17:40 | 39.64166 | 29.27029 | 29501 ft | 424 kts | 188° |
| 2026-04-27 17:40 | 39.61227 | 29.26634 | 29771 ft | 426 kts | 188° |
| 2026-04-27 17:41 | 39.58269 | 29.26240 | 30076 ft | 427 kts | 188° |
| 2026-04-27 17:41 | 39.52298 | 29.25457 | 30118 ft | 434 kts | 188° |
| 2026-04-27 17:42 | 39.46280 | 29.24673 | 30114 ft | 435 kts | 188° |
| 2026-04-27 17:42 | 39.40255 | 29.23891 | 30112 ft | 435 kts | 188° |
| 2026-04-27 17:43 | 39.34218 | 29.23094 | 30107 ft | 436 kts | 188° |
| 2026-04-27 17:43 | 39.28181 | 29.22296 | 30112 ft | 436 kts | 188° |
| 2026-04-27 17:44 | 39.22134 | 29.21509 | 30102 ft | 437 kts | 188° |
| 2026-04-27 17:44 | 39.16070 | 29.20716 | 30091 ft | 444 kts | 188° |
| 2026-04-27 17:45 | 39.09875 | 29.19899 | 30092 ft | 449 kts | 188° |
| 2026-04-27 17:45 | 39.03655 | 29.19098 | 30089 ft | 450 kts | 188° |
| 2026-04-27 17:46 | 38.97425 | 29.18296 | 30070 ft | 450 kts | 188° |
| 2026-04-27 17:46 | 38.91187 | 29.17487 | 30079 ft | 450 kts | 188° |
| 2026-04-27 17:47 | 38.84952 | 29.16684 | 30067 ft | 451 kts | 188° |
| 2026-04-27 17:47 | 38.78757 | 29.15883 | 30066 ft | 442 kts | 188° |
| 2026-04-27 17:48 | 38.72700 | 29.15103 | 30059 ft | 439 kts | 188° |
| 2026-04-27 17:48 | 38.66607 | 29.14324 | 29949 ft | 431 kts | 188° |
| 2026-04-27 17:48 | 38.63644 | 29.13946 | 29506 ft | 425 kts | 187° |
| 2026-04-27 17:49 | 38.60715 | 29.13570 | 29224 ft | 422 kts | 188° |
| 2026-04-27 17:49 | 38.57795 | 29.13193 | 28947 ft | 421 kts | 188° |
| 2026-04-27 17:49 | 38.54888 | 29.12816 | 28674 ft | 419 kts | 187° |
| 2026-04-27 17:49 | 38.52029 | 29.12448 | 28530 ft | 418 kts | 187° |
| 2026-04-27 17:50 | 38.49140 | 29.12076 | 28399 ft | 417 kts | 187° |
| 2026-04-27 17:50 | 38.43375 | 29.11335 | 27818 ft | 412 kts | 187° |
| 2026-04-27 17:50 | 38.40545 | 29.10974 | 27479 ft | 406 kts | 187° |
| 2026-04-27 17:51 | 38.37707 | 29.10613 | 27225 ft | 414 kts | 187° |
| 2026-04-27 17:51 | 38.34826 | 29.10246 | 26961 ft | 417 kts | 187° |
| 2026-04-27 17:51 | 38.31896 | 29.09873 | 26652 ft | 431 kts | 187° |
| 2026-04-27 17:51 | 38.28892 | 29.09493 | 26081 ft | 432 kts | 187° |
| 2026-04-27 17:52 | 38.25927 | 29.09120 | 25613 ft | 427 kts | 187° |
| 2026-04-27 17:52 | 38.22989 | 29.08752 | 25209 ft | 421 kts | 187° |
| 2026-04-27 17:52 | 38.20095 | 29.08390 | 24791 ft | 415 kts | 187° |
| 2026-04-27 17:52 | 38.18166 | 29.08146 | 24561 ft | 410 kts | 187° |
| 2026-04-27 17:53 | 38.14431 | 29.07672 | 23963 ft | 405 kts | 187° |
| 2026-04-27 17:53 | 38.11636 | 29.07313 | 23501 ft | 402 kts | 187° |
| 2026-04-27 17:53 | 38.08868 | 29.06958 | 22958 ft | 399 kts | 187° |
| 2026-04-27 17:53 | 38.06116 | 29.06607 | 22427 ft | 396 kts | 187° |
| 2026-04-27 17:54 | 38.03386 | 29.06262 | 21913 ft | 393 kts | 187° |
| 2026-04-27 17:54 | 38.00672 | 29.05919 | 21459 ft | 389 kts | 187° |
| 2026-04-27 17:54 | 37.97992 | 29.05578 | 21207 ft | 383 kts | 187° |
| 2026-04-27 17:54 | 37.96021 | 29.05329 | 21010 ft | 379 kts | 187° |
| 2026-04-27 17:55 | 37.93407 | 29.05002 | 20759 ft | 376 kts | 187° |
| 2026-04-27 17:55 | 37.90809 | 29.04676 | 20509 ft | 375 kts | 187° |
| 2026-04-27 17:55 | 37.88219 | 29.04350 | 20259 ft | 373 kts | 187° |
| 2026-04-27 17:55 | 37.85641 | 29.04026 | 20014 ft | 372 kts | 187° |
| 2026-04-27 17:56 | 37.83064 | 29.03703 | 19769 ft | 371 kts | 187° |
| 2026-04-27 17:56 | 37.80503 | 29.03382 | 19532 ft | 370 kts | 186° |
| 2026-04-27 17:56 | 37.77948 | 29.03062 | 19287 ft | 368 kts | 186° |
| 2026-04-27 17:56 | 37.75398 | 29.02742 | 19046 ft | 368 kts | 186° |
| 2026-04-27 17:57 | 37.72848 | 29.02421 | 18811 ft | 368 kts | 186° |
| 2026-04-27 17:57 | 37.70295 | 29.02100 | 18571 ft | 368 kts | 186° |
| 2026-04-27 17:57 | 37.67744 | 29.01781 | 18345 ft | 369 kts | 186° |
| 2026-04-27 17:57 | 37.65193 | 29.01462 | 18080 ft | 369 kts | 186° |
| 2026-04-27 17:58 | 37.62643 | 29.01142 | 17817 ft | 367 kts | 187° |
| 2026-04-27 17:58 | 37.60965 | 29.00932 | 17641 ft | 365 kts | 187° |
| 2026-04-27 17:58 | 37.58441 | 29.00617 | 17379 ft | 364 kts | 186° |
| 2026-04-27 17:58 | 37.55928 | 29.00303 | 17122 ft | 362 kts | 186° |
| 2026-04-27 17:59 | 37.53421 | 28.99992 | 16861 ft | 361 kts | 186° |
| 2026-04-27 17:59 | 37.50932 | 28.99684 | 16608 ft | 359 kts | 186° |
| 2026-04-27 17:59 | 37.48472 | 28.99378 | 16345 ft | 351 kts | 186° |
| 2026-04-27 17:59 | 37.46067 | 28.99080 | 16088 ft | 344 kts | 186° |
| 2026-04-27 18:00 | 37.43710 | 28.98786 | 15829 ft | 337 kts | 187° |
| 2026-04-27 18:00 | 37.41396 | 28.98497 | 15595 ft | 331 kts | 187° |
| 2026-04-27 18:00 | 37.39129 | 28.98218 | 15347 ft | 325 kts | 187° |
| 2026-04-27 18:00 | 37.36893 | 28.97940 | 15008 ft | 322 kts | 187° |
| 2026-04-27 18:01 | 37.34673 | 28.97663 | 14667 ft | 320 kts | 187° |
| 2026-04-27 18:01 | 37.32469 | 28.97388 | 14336 ft | 317 kts | 187° |
| 2026-04-27 18:01 | 37.30273 | 28.97117 | 13995 ft | 316 kts | 187° |
| 2026-04-27 18:01 | 37.28099 | 28.96848 | 13634 ft | 312 kts | 187° |
| 2026-04-27 18:02 | 37.25987 | 28.96587 | 13272 ft | 307 kts | 187° |
| 2026-04-27 18:02 | 37.23872 | 28.96327 | 12905 ft | 303 kts | 186° |
| 2026-04-27 18:02 | 37.21788 | 28.96069 | 12536 ft | 299 kts | 186° |
| 2026-04-27 18:02 | 37.19725 | 28.95812 | 12180 ft | 295 kts | 186° |
| 2026-04-27 18:03 | 37.17687 | 28.95823 | 11821 ft | 293 kts | 171° |
| 2026-04-27 18:03 | 37.15740 | 28.96501 | 11442 ft | 290 kts | 156° |
| 2026-04-27 18:03 | 37.14027 | 28.97777 | 11078 ft | 284 kts | 140° |
| 2026-04-27 18:03 | 37.12573 | 28.99399 | 10712 ft | 277 kts | 137° |
| 2026-04-27 18:04 | 37.11158 | 29.00994 | 10325 ft | 271 kts | 137° |
| 2026-04-27 18:04 | 37.09757 | 29.02566 | 9908 ft | 269 kts | 137° |
| 2026-04-27 18:04 | 37.08325 | 29.04053 | 9449 ft | 268 kts | 148° |
| 2026-04-27 18:04 | 37.06592 | 29.04922 | 8932 ft | 270 kts | 170° |
| 2026-04-27 18:05 | 37.04733 | 29.04946 | 8464 ft | 265 kts | 190° |
| 2026-04-27 18:05 | 37.03023 | 29.04174 | 7949 ft | 261 kts | 210° |
| 2026-04-27 18:05 | 37.01476 | 29.03033 | 7440 ft | 255 kts | 211° |
| 2026-04-27 18:05 | 36.99964 | 29.01923 | 6947 ft | 250 kts | 211° |
| 2026-04-27 18:06 | 36.98476 | 29.00832 | 6465 ft | 248 kts | 211° |
| 2026-04-27 18:06 | 36.96989 | 28.99742 | 5896 ft | 247 kts | 211° |
| 2026-04-27 18:06 | 36.95512 | 28.98656 | 5376 ft | 245 kts | 211° |
| 2026-04-27 18:06 | 36.94064 | 28.97567 | 5012 ft | 238 kts | 215° |
| 2026-04-27 18:07 | 36.92806 | 28.96281 | 4745 ft | 231 kts | 220° |
| 2026-04-27 18:07 | 36.91586 | 28.94982 | 4463 ft | 231 kts | 220° |
| 2026-04-27 18:07 | 36.90364 | 28.93686 | 4181 ft | 228 kts | 220° |
| 2026-04-27 18:07 | 36.89157 | 28.92407 | 3903 ft | 226 kts | 220° |
| 2026-04-27 18:08 | 36.87964 | 28.91140 | 3629 ft | 225 kts | 220° |
| 2026-04-27 18:08 | 36.86772 | 28.89876 | 3362 ft | 224 kts | 220° |
| 2026-04-27 18:08 | 36.85565 | 28.88656 | 3086 ft | 223 kts | 212° |
| 2026-04-27 18:08 | 36.84232 | 28.87684 | 2795 ft | 221 kts | 209° |
| 2026-04-27 18:09 | 36.82933 | 28.86740 | 2489 ft | 210 kts | 210° |
| 2026-04-27 18:09 | 36.81695 | 28.85836 | 2174 ft | 199 kts | 211° |
| 2026-04-27 18:09 | 36.80655 | 28.84898 | 2069 ft | 171 kts | 220° |
| 2026-04-27 18:09 | 36.79838 | 28.83897 | 1801 ft | 158 kts | 225° |
| 2026-04-27 18:10 | 36.79090 | 28.82922 | 1514 ft | 153 kts | 224° |
| 2026-04-27 18:10 | 36.78304 | 28.82038 | 1278 ft | 151 kts | 216° |
| 2026-04-27 18:10 | 36.77405 | 28.81377 | 1065 ft | 150 kts | 204° |
| 2026-04-27 18:10 | 36.76425 | 28.80955 | 859 ft | 149 kts | 195° |
| 2026-04-27 18:11 | 36.75425 | 28.80639 | 648 ft | 147 kts | 194° |
| 2026-04-27 18:11 | 36.74440 | 28.80299 | 449 ft | 146 kts | 197° |
| 2026-04-27 18:11 | 36.73461 | 28.79980 | 236 ft | 145 kts | 195° |
| 2026-04-27 18:11 | 36.72491 | 28.79653 | 40 ft | 143 kts | 195° |
| 2026-04-27 18:12 | 36.71589 | 28.79346 | 12 ft | 118 kts | 195° |
| 2026-04-27 18:12 | 36.71090 | 28.79175 | 13 ft | 33 kts | 195° |
| 2026-04-27 18:12 | 36.70882 | 28.79105 | 13 ft | 29 kts | 196° |
| 2026-04-27 18:12 | 36.70725 | 28.79031 | 13 ft | 22 kts | 210° |
| 2026-04-27 18:13 | 36.70614 | 28.78922 | 14 ft | 18 kts | 224° |
| 2026-04-27 18:13 | 36.70582 | 28.78837 | 13 ft | 10 kts | 284° |
| 2026-04-27 18:13 | 36.70634 | 28.78808 | 13 ft | 8 kts | 5° |
| 2026-04-27 18:13 | 36.70688 | 28.78825 | 13 ft | 10 kts | 15° |
| 2026-04-27 18:14 | 36.70783 | 28.78857 | 13 ft | 18 kts | 15° |
| 2026-04-27 18:14 | 36.70906 | 28.78898 | 13 ft | 18 kts | 15° |
| 2026-04-27 18:14 | 36.71026 | 28.78938 | 13 ft | 17 kts | 15° |
| 2026-04-27 18:14 | 36.71139 | 28.78978 | 13 ft | 16 kts | 15° |
| 2026-04-27 18:15 | 36.71245 | 28.79015 | 13 ft | 15 kts | 15° |
| 2026-04-27 18:15 | 36.71351 | 28.79050 | 13 ft | 16 kts | 15° |
| 2026-04-27 18:15 | 36.71457 | 28.79086 | 12 ft | 16 kts | 15° |
| 2026-04-27 18:15 | 36.71558 | 28.79121 | 12 ft | 15 kts | 15° |
| 2026-04-27 18:16 | 36.71654 | 28.79153 | 12 ft | 14 kts | 15° |
| 2026-04-27 18:16 | 36.71743 | 28.79183 | 12 ft | 13 kts | 15° |
| 2026-04-27 18:16 | 36.71819 | 28.79207 | 12 ft | 10 kts | 9° |
| 2026-04-27 18:16 | 36.71872 | 28.79172 | 12 ft | 9 kts | 300° |
| 2026-04-27 18:17 | 36.71887 | 28.79102 | 12 ft | 10 kts | 282° |
| 2026-04-27 18:17 | 36.71928 | 28.79037 | 12 ft | 10 kts | 347° |
| 2026-04-27 18:17 | 36.71990 | 28.79047 | 12 ft | 8 kts | 15° |
| 2026-04-27 18:17 | 36.72041 | 28.79062 | 12 ft | 6 kts | 6° |
| 2026-04-27 18:18 | 36.72065 | 28.79041 | 12 ft | 4 kts | 295° |
| 2026-04-27 18:18 | 36.72071 | 28.79015 | 12 ft | 3 kts | 285° |
| 2026-04-27 18:18 | 36.72075 | 28.78998 | 13 ft | 1 kts | 285° |
| 2026-04-27 18:18 | 36.72075 | 28.78997 | 13 ft | 0 kts | 285° |